Vliegveldwaarnemingen Nederland - (AUTO) METAR

Luchtvaartmeteorologische informatie voor operationeel gebruik en vluchtvoorbereiding is beschikbaar op www.luchtvaartmeteo.nl.

ZCZC
SA181855 EHFS     VLISSINGEN AWS   NLD   8 m.
METAR EHFS 181855Z AUTO 23005KT 7000 NSC 07/06 Q1015 W///H///=

ZCZC
SA181925 EHKD     DE KOOY/DE KOOY   NLD   1 m.
METAR EHKD 181925Z AUTO 21010KT 5000 BR BKN053 OVC140 08/07 Q1013
WHT 21012KT 5000 SCT045 BKN055 TEMPO SCT025=

ZCZC
SA181925 EHFD     F3-FB-1   NLD   50 m.
METAR EHFD 181925Z AUTO 22022KT 9999 FEW037/// 08/06 Q1009 W///H///=

ZCZC
SA181925 EHAM     AMSTERDAM/SCHIPHOL   NLD   -3 m.
METAR EHAM 181925Z 27007KT 230V290 9999 BKN035 10/08 Q1014 NOSIG=

ZCZC
SA181925 EHVL     VLIELAND   NLD   10 m.
METAR EHVL 181925Z AUTO 20010KT 2400 BR BKN002 BKN003 OVC140 06/06
Q1013 AMB=

ZCZC
SA181925 EHJR     K13-A   NLD   37 m.
METAR EHJR 181925Z AUTO 22024KT //// // ///////// 08/06 Q1012 RE//
W07/H11=

ZCZC
SA181925 EHLW     LEEUWARDEN/LEEUWARDEN   NLD   1 m.
METAR EHLW 181925Z AUTO 24007KT 3000 R23/2500U BR FEW002 OVC053 07/07
Q1013
YLO 24010KT 9999 BKN025 TEMPO 1500 BR FEW002 SCT005 BKN008 RMK R23=

ZCZC
SA181925 EHDL     ARNHEM/DEELEN   NLD   48 m.
METAR EHDL 181925Z AUTO 14001KT 9999 BKN180 OVC310 04/02 Q1014 BLU=

ZCZC
SA181925 EHGG     GRONINGEN/EELDE   NLD   5 m.
METAR EHGG 181925Z AUTO 25004KT 9999 OVC029 08/07 Q1014 NOSIG=

ZCZC
SA181925 EHSC     LICHTEILAND GOEREE   NLD   22 m.
METAR EHSC 181925Z AUTO 24011KT 9999 ///////// 08/07 Q1014 W06/H3=

ZCZC
SA181925 EHSA     EURO PLATFORM   NLD   19 m.
METAR EHSA 181925Z AUTO 24011KT 9999 ///////// 08/07 Q1014 W05/H4=

ZCZC
SA181925 EHWO     WOENSDRECHT/WOENSDRECHT   NLD   19 m.
METAR EHWO 181925Z AUTO 23004KT 190V270 9999 OVC180 07/05 Q1015 BLU=

ZCZC
SA181925 EHRD     ROTTERDAM/THE HAGUE AIRPORT   NLD   -5 m.
METAR EHRD 181925Z AUTO 17002KT 7000 FEW042 06/06 Q1014 NOSIG=

ZCZC
SA181925 EHGR     GILZE-RIJEN/GILZE-RIJEN   NLD   14 m.
METAR EHGR 181925Z AUTO 22004KT 9999 OVC180 09/04 Q1015
BLU 20005KT CAVOK=

ZCZC
SA181925 EHEH     EINDHOVEN/EINDHOVEN   NLD   22 m.
METAR EHEH 181925Z AUTO 18003KT 9999 OVC180 06/03 Q1015
BLU 22004KT CAVOK=

ZCZC
SA181925 EHVK     VOLKEL/VOLKEL   NLD   21 m.
METAR EHVK 181925Z AUTO 23002KT 9999 OVC180 07/03 Q1015
BLU 21006KT CAVOK=

ZCZC
SA181925 EHBK     MAASTRICHT/MAASTRICHT-AACHEN   NLD   114 m.
METAR EHBK 181925Z AUTO 20008KT 9999 NSC 09/02 Q1016 NOSIG=

ZCZC
SA181925 EHFZ     F16-A   NLD   43 m.
METAR EHFZ 181925Z AUTO VRB24KT 8000 NCD 08/06 Q1011 W///H///=

ZCZC
SA181925 EHKV     K14-FA-1C   NLD   41 m.
METAR EHKV 181925Z AUTO 21023KT 9000 FEW037 BKN048 08/07 Q1013
W///H///=

ZCZC
SA181925 EHMG     L9-FF-1   NLD   44 m.
METAR EHMG 181925Z AUTO 23017KT 0450 FG BKN000 BKN001 07/07 Q1013
W///H///=

ZCZC
SA181925 EHMA     AWG-1   NLD   40 m.
METAR EHMA 181925Z AUTO 23015KT 1100 DZ BKN000 BKN002 BKN003 07/06
Q1013 W///H///=

ZCZC
SA181925 EHDV     D15-FA-1   NLD   42 m.
METAR EHDV 181925Z AUTO 23026KT 180V280 9999 FEW034/// 08/06 Q1009
W///H///=

ZCZC
SA181925 EHAK     A12-CPP   NLD   48 m.
METAR EHAK 181925Z AUTO 21029KT 9999 NSC 07/06 Q1008 W///H///=

ZCZC
SA181925 EHQE     HOORN-A   NLD   50 m.
METAR EHQE 181925Z AUTO 17018KT 4900 BR FEW044 08/07 Q1013 W///H///=

ZCZC
SA181925 EHJA     J6-A   NLD   45 m.
METAR EHJA 181925Z AUTO 21023KT 9999 NSC 08/06 Q1011 W///H///=

ZCZC
SA181925 EHPG     P11-B   NLD   41 m.
METAR EHPG 181925Z AUTO 22015KT 9999 SCT024 SCT028 BKN038 08/07 Q1013
W///H///=

ZCZC
SA181925 EHHW     BUITENGAATS/BG-OHVS2      42 m.
METAR EHHW 181925Z AUTO 24016KT 210V270 //// // FEW000/// SCT001///
BKN003/// 06/06 Q1013 RE// W///H///=

18/02/2019 20.30 uur LT